Decoded Metar for KSTJ (ST. JOSEPH in MO, USA) (IATA:STJ) | Meteo·Mobile Aviation Weather
aviador You're here:

KSTJ Decoded Metar

ST. JOSEPH in MO, USA
Report Time2018-10-22 09:53:00
UTC Time2018-10-22 10:04:57
Flight Rules vfr VFR
Wind170° at 05 kt
W.Decomp.*RWY 17: 5.0 kt HW 0.3 kt LCW
RWY 13: 4.0 kt HW 2.9 kt RCW
W.Rank170° ranks 3
Current wind is below 170° avg. (8.5)
Visibility9999 m
Phenomena:N/A
Clouds:N/A
Expected CloudBase > 400 ft AGL from Temp-Dew spread
CeilingNone
Temp07°C (ISA -6)
Dew Point06°C (93% RH)
AAT4.3°C
QNH1019 hPa
Density Alt-33 ft
Elevation810 ft
Report Wrong Elevation
Raw Report
KSTJ 220953Z AUTO 17005KT 10SM CLR 07/06 A3008 RMK AO2 SLP184
T00720056=

Extra information for KSTJ:More info

Metar Taf Metar & Taf Last 4 Metars F.Rules Stats Wind Profile Meteogram Temp Stats Airport Information Weather charts Add Link Nearby VenuesMetar ALERT Operation Metar Decoded Social comments

AIRNAV info for KSTJ